sensor_id;sensor_type;location;lat;lon;timestamp;pressure;altitude;pressure_sealevel;temperature;humidity
80186;BME280;69904;52.122;5.422;2023-07-28T00:01:26;100467.75;;;17.49;92.92
80186;BME280;69904;52.122;5.422;2023-07-28T00:03:52;100464.19;;;17.49;92.75
80186;BME280;69904;52.122;5.422;2023-07-28T00:06:19;100475.94;;;17.49;92.77
80186;BME280;69904;52.122;5.422;2023-07-28T00:08:45;100472.97;;;17.51;92.67
80186;BME280;69904;52.122;5.422;2023-07-28T00:11:14;100474.03;;;17.50;92.75
80186;BME280;69904;52.122;5.422;2023-07-28T00:13:41;100469.16;;;17.52;92.87
80186;BME280;69904;52.122;5.422;2023-07-28T00:16:09;100468.88;;;17.53;92.91
80186;BME280;69904;52.122;5.422;2023-07-28T00:18:36;100470.78;;;17.53;92.88
80186;BME280;69904;52.122;5.422;2023-07-28T00:21:04;100463.44;;;17.53;92.81
80186;BME280;69904;52.122;5.422;2023-07-28T00:23:31;100473.28;;;17.54;92.91
80186;BME280;69904;52.122;5.422;2023-07-28T00:25:57;100467.81;;;17.54;92.88
80186;BME280;69904;52.122;5.422;2023-07-28T00:28:24;100463.19;;;17.55;92.74
80186;BME280;69904;52.122;5.422;2023-07-28T00:30:51;100458.56;;;17.55;92.52
80186;BME280;69904;52.122;5.422;2023-07-28T00:33:17;100456.66;;;17.56;92.80
80186;BME280;69904;52.122;5.422;2023-07-28T00:35:43;100454.16;;;17.54;92.63
80186;BME280;69904;52.122;5.422;2023-07-28T00:38:10;100463.19;;;17.55;92.34
80186;BME280;69904;52.122;5.422;2023-07-28T00:40:36;100462.34;;;17.54;92.37
80186;BME280;69904;52.122;5.422;2023-07-28T00:43:03;100463.44;;;17.53;92.55
80186;BME280;69904;52.122;5.422;2023-07-28T00:45:30;100457.97;;;17.53;92.23
80186;BME280;69904;52.122;5.422;2023-07-28T00:47:59;100471.38;;;17.55;92.19
80186;BME280;69904;52.122;5.422;2023-07-28T00:50:26;100462.34;;;17.54;92.81
80186;BME280;69904;52.122;5.422;2023-07-28T00:52:55;100462.34;;;17.54;92.45
80186;BME280;69904;52.122;5.422;2023-07-28T00:55:22;100457.16;;;17.53;92.27
80186;BME280;69904;52.122;5.422;2023-07-28T00:57:50;100457.97;;;17.53;92.09
80186;BME280;69904;52.122;5.422;2023-07-28T01:00:16;100448.13;;;17.52;92.38
80186;BME280;69904;52.122;5.422;2023-07-28T01:02:43;100458.25;;;17.52;92.12
80186;BME280;69904;52.122;5.422;2023-07-28T01:05:10;100449.22;;;17.51;92.33
80186;BME280;69904;52.122;5.422;2023-07-28T01:07:45;100460.16;;;17.51;92.44
80186;BME280;69904;52.122;5.422;2023-07-28T01:10:17;100466.44;;;17.52;92.34
80186;BME280;69904;52.122;5.422;2023-07-28T01:12:45;100469.16;;;17.52;92.27
80186;BME280;69904;52.122;5.422;2023-07-28T01:15:11;100462.03;;;17.51;92.19
80186;BME280;69904;52.122;5.422;2023-07-28T01:17:38;100471.06;;;17.51;92.21
80186;BME280;69904;52.122;5.422;2023-07-28T01:20:04;100465.59;;;17.51;92.17
80186;BME280;69904;52.122;5.422;2023-07-28T01:22:40;100464.78;;;17.51;92.16
80186;BME280;69904;52.122;5.422;2023-07-28T01:25:49;100470.22;;;17.51;92.30
80186;BME280;69904;52.122;5.422;2023-07-28T01:28:19;100473.78;;;17.51;92.13
80186;BME280;69904;52.122;5.422;2023-07-28T01:30:46;100473.22;;;17.49;92.04
80186;BME280;69904;52.122;5.422;2023-07-28T01:33:13;100471.31;;;17.50;92.16
80186;BME280;69904;52.122;5.422;2023-07-28T01:35:40;100481.16;;;17.51;92.00
80186;BME280;69904;52.122;5.422;2023-07-28T01:38:06;100483.88;;;17.51;91.96
80186;BME280;69904;52.122;5.422;2023-07-28T01:40:33;100483.28;;;17.49;92.07
80186;BME280;69904;52.122;5.422;2023-07-28T01:42:59;100483.88;;;17.51;92.29
80186;BME280;69904;52.122;5.422;2023-07-28T01:45:25;100481.38;;;17.49;92.26
80186;BME280;69904;52.122;5.422;2023-07-28T01:47:52;100483.88;;;17.51;92.06
80186;BME280;69904;52.122;5.422;2023-07-28T01:50:19;100483.88;;;17.51;91.99
80186;BME280;69904;52.122;5.422;2023-07-28T01:52:45;100474.03;;;17.50;92.02
80186;BME280;69904;52.122;5.422;2023-07-28T01:55:11;100473.22;;;17.49;92.19
80186;BME280;69904;52.122;5.422;2023-07-28T01:57:39;100475.09;;;17.49;92.26
80186;BME280;69904;52.122;5.422;2023-07-28T02:00:06;100478.66;;;17.49;92.18
80186;BME280;69904;52.122;5.422;2023-07-28T02:02:33;100472.38;;;17.49;92.25
80186;BME280;69904;52.122;5.422;2023-07-28T02:04:59;100472.38;;;17.49;92.21
80186;BME280;69904;52.122;5.422;2023-07-28T02:07:26;100477.00;;;17.48;92.13
80186;BME280;69904;52.122;5.422;2023-07-28T02:09:52;100477.00;;;17.48;92.23
80186;BME280;69904;52.122;5.422;2023-07-28T02:12:19;100478.91;;;17.48;92.34
80186;BME280;69904;52.122;5.422;2023-07-28T02:14:46;100481.91;;;17.46;92.55
80186;BME280;69904;52.122;5.422;2023-07-28T02:17:12;100483.53;;;17.47;92.65
80186;BME280;69904;52.122;5.422;2023-07-28T02:19:39;100482.47;;;17.48;92.87
80186;BME280;69904;52.122;5.422;2023-07-28T02:22:05;100485.47;;;17.47;93.21
80186;BME280;69904;52.122;5.422;2023-07-28T02:24:33;100481.31;;;17.44;93.08
80186;BME280;69904;52.122;5.422;2023-07-28T02:26:59;100480.00;;;17.47;93.23
80186;BME280;69904;52.122;5.422;2023-07-28T02:29:26;100475.88;;;17.44;93.13
80186;BME280;69904;52.122;5.422;2023-07-28T02:31:52;100476.94;;;17.43;92.81
80186;BME280;69904;52.122;5.422;2023-07-28T02:34:18;100475.03;;;17.44;93.10
80186;BME280;69904;52.122;5.422;2023-07-28T02:36:45;100475.03;;;17.44;93.31
80186;BME280;69904;52.122;5.422;2023-07-28T02:39:11;100480.50;;;17.44;93.21
80186;BME280;69904;52.122;5.422;2023-07-28T02:41:38;100473.38;;;17.43;93.14
80186;BME280;69904;52.122;5.422;2023-07-28T02:44:04;100484.28;;;17.43;93.44
80186;BME280;69904;52.122;5.422;2023-07-28T02:46:30;100480.50;;;17.44;93.15
80186;BME280;69904;52.122;5.422;2023-07-28T02:48:57;100486.78;;;17.44;93.65
80186;BME280;69904;52.122;5.422;2023-07-28T02:51:24;100497.44;;;17.46;93.48
80186;BME280;69904;52.122;5.422;2023-07-28T02:53:50;100492.47;;;17.43;93.55
80186;BME280;69904;52.122;5.422;2023-07-28T02:56:16;100487.84;;;17.43;93.57
80186;BME280;69904;52.122;5.422;2023-07-28T02:58:43;100498.53;;;17.45;93.39
80186;BME280;69904;52.122;5.422;2023-07-28T03:01:09;100500.19;;;17.46;93.43
80186;BME280;69904;52.122;5.422;2023-07-28T03:03:36;100498.53;;;17.45;93.37
80186;BME280;69904;52.122;5.422;2023-07-28T03:06:02;100503.97;;;17.45;93.44
80186;BME280;69904;52.122;5.422;2023-07-28T03:08:28;100502.06;;;17.45;93.62
80186;BME280;69904;52.122;5.422;2023-07-28T03:10:58;100499.34;;;17.45;93.50
80186;BME280;69904;52.122;5.422;2023-07-28T03:13:25;100501.25;;;17.45;93.52
80186;BME280;69904;52.122;5.422;2023-07-28T03:15:51;100507.53;;;17.45;93.62
80186;BME280;69904;52.122;5.422;2023-07-28T03:18:18;100504.81;;;17.45;93.58
80186;BME280;69904;52.122;5.422;2023-07-28T03:20:45;100511.91;;;17.46;93.57
80186;BME280;69904;52.122;5.422;2023-07-28T03:23:12;100513.81;;;17.46;93.83
80186;BME280;69904;52.122;5.422;2023-07-28T03:25:38;100518.44;;;17.45;93.73
80186;BME280;69904;52.122;5.422;2023-07-28T03:28:05;100521.19;;;17.45;93.66
80186;BME280;69904;52.122;5.422;2023-07-28T03:30:31;100515.72;;;17.45;93.75
80186;BME280;69904;52.122;5.422;2023-07-28T03:32:58;100521.19;;;17.45;93.97
80186;BME280;69904;52.122;5.422;2023-07-28T03:35:24;100523.06;;;17.45;93.81
80186;BME280;69904;52.122;5.422;2023-07-28T03:37:51;100523.06;;;17.45;93.92
80186;BME280;69904;52.122;5.422;2023-07-28T03:40:17;100521.19;;;17.45;93.94
80186;BME280;69904;52.122;5.422;2023-07-28T03:42:44;100527.47;;;17.46;93.81
80186;BME280;69904;52.122;5.422;2023-07-28T03:45:10;100530.19;;;17.46;94.18
80186;BME280;69904;52.122;5.422;2023-07-28T03:47:37;100527.47;;;17.46;94.11
80186;BME280;69904;52.122;5.422;2023-07-28T03:50:03;100534.81;;;17.45;93.86
80186;BME280;69904;52.122;5.422;2023-07-28T03:52:30;100526.63;;;17.45;94.11
80186;BME280;69904;52.122;5.422;2023-07-28T03:54:56;100531.25;;;17.45;94.11
80186;BME280;69904;52.122;5.422;2023-07-28T03:57:23;100532.09;;;17.45;94.14
80186;BME280;69904;52.122;5.422;2023-07-28T03:59:49;100527.47;;;17.46;94.23
80186;BME280;69904;52.122;5.422;2023-07-28T04:02:16;100533.75;;;17.46;94.01
80186;BME280;69904;52.122;5.422;2023-07-28T04:04:42;100533.75;;;17.46;94.30
80186;BME280;69904;52.122;5.422;2023-07-28T04:07:09;100534.56;;;17.47;94.31
80186;BME280;69904;52.122;5.422;2023-07-28T04:09:35;100537.31;;;17.47;94.40
80186;BME280;69904;52.122;5.422;2023-07-28T04:12:02;100536.47;;;17.46;94.71
80186;BME280;69904;52.122;5.422;2023-07-28T04:14:28;100532.09;;;17.45;94.30
80186;BME280;69904;52.122;5.422;2023-07-28T04:16:55;100535.66;;;17.46;94.65
80186;BME280;69904;52.122;5.422;2023-07-28T04:19:21;100535.38;;;17.47;94.47
80186;BME280;69904;52.122;5.422;2023-07-28T04:21:47;100534.56;;;17.47;94.50
80186;BME280;69904;52.122;5.422;2023-07-28T04:24:14;100532.09;;;17.45;94.54
80186;BME280;69904;52.122;5.422;2023-07-28T04:26:40;100534.56;;;17.47;94.64
80186;BME280;69904;52.122;5.422;2023-07-28T04:29:09;100537.88;;;17.49;94.69
80186;BME280;69904;52.122;5.422;2023-07-28T04:31:35;100538.94;;;17.48;94.64
80186;BME280;69904;52.122;5.422;2023-07-28T04:34:02;100539.53;;;17.50;94.84
80186;BME280;69904;52.122;5.422;2023-07-28T04:36:29;100550.44;;;17.50;94.59
80186;BME280;69904;52.122;5.422;2023-07-28T04:38:56;100544.16;;;17.49;94.50
80186;BME280;69904;52.122;5.422;2023-07-28T04:41:22;100546.88;;;17.49;94.72
80186;BME280;69904;52.122;5.422;2023-07-28T04:43:48;100542.25;;;17.50;94.74
80186;BME280;69904;52.122;5.422;2023-07-28T04:46:15;100543.31;;;17.49;94.85
80186;BME280;69904;52.122;5.422;2023-07-28T04:48:41;100546.63;;;17.51;94.78
80186;BME280;69904;52.122;5.422;2023-07-28T04:51:08;100547.72;;;17.50;94.81
80186;BME280;69904;52.122;5.422;2023-07-28T04:53:34;100549.38;;;17.51;94.78
80186;BME280;69904;52.122;5.422;2023-07-28T04:56:01;100554.81;;;17.51;94.61
80186;BME280;69904;52.122;5.422;2023-07-28T04:58:29;100553.16;;;17.50;94.81
80186;BME280;69904;52.122;5.422;2023-07-28T05:00:56;100560.28;;;17.51;94.95
80186;BME280;69904;52.122;5.422;2023-07-28T05:03:22;100557.28;;;17.52;95.11
80186;BME280;69904;52.122;5.422;2023-07-28T05:05:49;100552.09;;;17.51;94.78
80186;BME280;69904;52.122;5.422;2023-07-28T05:08:16;100561.09;;;17.51;94.77
80186;BME280;69904;52.122;5.422;2023-07-28T05:10:43;100559.75;;;17.54;94.58
80186;BME280;69904;52.122;5.422;2023-07-28T05:13:10;100553.47;;;17.53;94.56
80186;BME280;69904;52.122;5.422;2023-07-28T05:15:36;100558.94;;;17.53;94.93
80186;BME280;69904;52.122;5.422;2023-07-28T05:18:03;100553.25;;;17.55;94.57
80186;BME280;69904;52.122;5.422;2023-07-28T05:20:29;100553.25;;;17.55;94.15
80186;BME280;69904;52.122;5.422;2023-07-28T05:22:56;100560.13;;;17.57;94.94
80186;BME280;69904;52.122;5.422;2023-07-28T05:25:22;100560.13;;;17.57;94.72
80186;BME280;69904;52.122;5.422;2023-07-28T05:27:49;100555.44;;;17.58;94.51
80186;BME280;69904;52.122;5.422;2023-07-28T05:30:15;100556.91;;;17.60;94.55
80186;BME280;69904;52.122;5.422;2023-07-28T05:32:42;100551.19;;;17.62;94.62
80186;BME280;69904;52.122;5.422;2023-07-28T05:35:08;100553.94;;;17.62;94.63
80186;BME280;69904;52.122;5.422;2023-07-28T05:37:35;100551.19;;;17.62;94.83
80186;BME280;69904;52.122;5.422;2023-07-28T05:40:01;100553.09;;;17.61;94.70
80186;BME280;69904;52.122;5.422;2023-07-28T05:42:28;100555.25;;;17.59;94.58
80186;BME280;69904;52.122;5.422;2023-07-28T05:44:55;100557.50;;;17.62;94.52
80186;BME280;69904;52.122;5.422;2023-07-28T05:47:21;100563.75;;;17.63;94.63
80186;BME280;69904;52.122;5.422;2023-07-28T05:49:48;100567.31;;;17.63;94.28
80186;BME280;69904;52.122;5.422;2023-07-28T05:52:14;100571.94;;;17.63;94.59
80186;BME280;69904;52.122;5.422;2023-07-28T05:54:41;100568.72;;;17.66;94.57
80186;BME280;69904;52.122;5.422;2023-07-28T05:57:07;100570.38;;;17.67;94.72
80186;BME280;69904;52.122;5.422;2023-07-28T05:59:34;100574.78;;;17.68;94.72
80186;BME280;69904;52.122;5.422;2023-07-28T06:02:00;100572.84;;;17.68;94.62
80186;BME280;69904;52.122;5.422;2023-07-28T06:04:26;100585.69;;;17.68;94.64
80186;BME280;69904;52.122;5.422;2023-07-28T06:06:53;100581.03;;;17.68;94.70
80186;BME280;69904;52.122;5.422;2023-07-28T06:09:19;100576.16;;;17.71;94.58
80186;BME280;69904;52.122;5.422;2023-07-28T06:11:46;100586.56;;;17.74;94.59
80186;BME280;69904;52.122;5.422;2023-07-28T06:14:13;100589.03;;;17.75;94.53
80186;BME280;69904;52.122;5.422;2023-07-28T06:16:39;100589.03;;;17.75;94.49
80186;BME280;69904;52.122;5.422;2023-07-28T06:19:06;100587.47;;;17.79;94.39
80186;BME280;69904;52.122;5.422;2023-07-28T06:21:32;100586.72;;;17.84;94.43
80186;BME280;69904;52.122;5.422;2023-07-28T06:23:59;100584.06;;;17.89;94.41
80186;BME280;69904;52.122;5.422;2023-07-28T06:26:26;100590.66;;;17.93;94.46
80186;BME280;69904;52.122;5.422;2023-07-28T06:28:52;100598.34;;;17.96;94.04
80186;BME280;69904;52.122;5.422;2023-07-28T06:31:19;100597.53;;;17.95;94.07
80186;BME280;69904;52.122;5.422;2023-07-28T06:33:47;100605.47;;;17.97;93.95
80186;BME280;69904;52.122;5.422;2023-07-28T06:36:13;100604.97;;;18.00;93.98
80186;BME280;69904;52.122;5.422;2023-07-28T06:38:40;100604.16;;;17.99;93.96
80186;BME280;69904;52.122;5.422;2023-07-28T06:41:06;100608.50;;;18.00;93.61
80186;BME280;69904;52.122;5.422;2023-07-28T06:43:33;100620.03;;;18.02;94.16
80186;BME280;69904;52.122;5.422;2023-07-28T06:45:59;100622.16;;;18.00;93.67
80186;BME280;69904;52.122;5.422;2023-07-28T06:48:26;100630.34;;;18.00;93.89
80186;BME280;69904;52.122;5.422;2023-07-28T06:50:52;100625.72;;;18.01;93.45
80186;BME280;69904;52.122;5.422;2023-07-28T06:53:20;100637.47;;;18.01;93.62
80186;BME280;69904;52.122;5.422;2023-07-28T06:55:47;100632.28;;;18.00;93.52
80186;BME280;69904;52.122;5.422;2023-07-28T06:58:13;100632.00;;;18.01;93.37
80186;BME280;69904;52.122;5.422;2023-07-28T07:00:39;100635.34;;;18.03;93.71
80186;BME280;69904;52.122;5.422;2023-07-28T07:03:06;100646.75;;;18.00;93.38
80186;BME280;69904;52.122;5.422;2023-07-28T07:05:32;100641.56;;;17.99;93.46
80186;BME280;69904;52.122;5.422;2023-07-28T07:07:59;100641.56;;;17.99;93.22
80186;BME280;69904;52.122;5.422;2023-07-28T07:10:27;100649.47;;;18.00;93.30
80186;BME280;69904;52.122;5.422;2023-07-28T07:12:53;100640.78;;;18.03;93.48
80186;BME280;69904;52.122;5.422;2023-07-28T07:15:20;100645.44;;;18.03;93.40
80186;BME280;69904;52.122;5.422;2023-07-28T07:17:46;100647.66;;;18.06;93.51
80186;BME280;69904;52.122;5.422;2023-07-28T07:20:13;100652.03;;;18.07;93.47
80186;BME280;69904;52.122;5.422;2023-07-28T07:22:39;100649.31;;;18.07;93.33
80186;BME280;69904;52.122;5.422;2023-07-28T07:25:06;100652.88;;;18.07;93.17
80186;BME280;69904;52.122;5.422;2023-07-28T07:27:33;100659.41;;;18.06;93.36
80186;BME280;69904;52.122;5.422;2023-07-28T07:29:59;100656.44;;;18.08;93.16
80186;BME280;69904;52.122;5.422;2023-07-28T07:32:26;100659.47;;;18.12;93.29
80186;BME280;69904;52.122;5.422;2023-07-28T07:34:52;100663.31;;;18.11;93.17
80186;BME280;69904;52.122;5.422;2023-07-28T07:37:19;100664.69;;;18.13;93.21
80186;BME280;69904;52.122;5.422;2023-07-28T07:39:45;100666.34;;;18.14;92.88
80186;BME280;69904;52.122;5.422;2023-07-28T07:42:12;100664.19;;;18.16;92.97
80186;BME280;69904;52.122;5.422;2023-07-28T07:44:40;100667.50;;;18.18;92.64
80186;BME280;69904;52.122;5.422;2023-07-28T07:47:14;100677.09;;;18.21;92.59
80186;BME280;69904;52.122;5.422;2023-07-28T07:49:42;100681.22;;;18.23;92.16
80186;BME280;69904;52.122;5.422;2023-07-28T07:52:09;100686.19;;;18.26;92.11
80186;BME280;69904;52.122;5.422;2023-07-28T07:54:36;100689.84;;;18.32;92.16
80186;BME280;69904;52.122;5.422;2023-07-28T07:57:03;100688.78;;;18.38;91.67
80186;BME280;69904;52.122;5.422;2023-07-28T07:59:30;100690.03;;;18.47;92.08
80186;BME280;69904;52.122;5.422;2023-07-28T08:02:01;100692.25;;;18.50;91.29
80186;BME280;69904;52.122;5.422;2023-07-28T08:04:29;100702.69;;;18.53;91.00
80186;BME280;69904;52.122;5.422;2023-07-28T08:06:56;100695.06;;;18.55;90.55
80186;BME280;69904;52.122;5.422;2023-07-28T08:09:22;100703.03;;;18.57;90.39
80186;BME280;69904;52.122;5.422;2023-07-28T08:11:49;100695.13;;;18.60;90.16
80186;BME280;69904;52.122;5.422;2023-07-28T08:14:15;100706.13;;;18.65;89.93
80186;BME280;69904;52.122;5.422;2023-07-28T08:16:42;100698.34;;;18.74;90.06
80186;BME280;69904;52.122;5.422;2023-07-28T08:19:08;100704.16;;;18.82;89.54
80186;BME280;69904;52.122;5.422;2023-07-28T08:21:35;100708.88;;;18.87;89.03
80186;BME280;69904;52.122;5.422;2023-07-28T08:24:03;100705.94;;;18.93;88.75
80186;BME280;69904;52.122;5.422;2023-07-28T08:26:30;100705.56;;;19.07;88.93
80186;BME280;69904;52.122;5.422;2023-07-28T08:28:57;100702.09;;;19.16;88.45
80186;BME280;69904;52.122;5.422;2023-07-28T08:31:23;100710.41;;;19.26;88.64
80186;BME280;69904;52.122;5.422;2023-07-28T08:33:50;100714.59;;;19.34;87.85
80186;BME280;69904;52.122;5.422;2023-07-28T08:36:16;100709.44;;;19.38;87.33
80186;BME280;69904;52.122;5.422;2023-07-28T08:38:43;100715.16;;;19.36;87.14
80186;BME280;69904;52.122;5.422;2023-07-28T08:41:12;100720.94;;;19.40;87.61
80186;BME280;69904;52.122;5.422;2023-07-28T08:43:40;100726.34;;;19.34;87.17
80186;BME280;69904;52.122;5.422;2023-07-28T08:46:08;100722.25;;;19.32;87.01
80186;BME280;69904;52.122;5.422;2023-07-28T08:48:35;100721.72;;;19.35;87.22
80186;BME280;69904;52.122;5.422;2023-07-28T08:51:02;100719.59;;;19.42;87.14
80186;BME280;69904;52.122;5.422;2023-07-28T08:53:30;100721.25;;;19.43;86.48
80186;BME280;69904;52.122;5.422;2023-07-28T08:56:00;100725.41;;;19.46;86.94
80186;BME280;69904;52.122;5.422;2023-07-28T08:58:26;100728.97;;;19.46;86.73
80186;BME280;69904;52.122;5.422;2023-07-28T09:00:53;100727.06;;;19.47;86.38
80186;BME280;69904;52.122;5.422;2023-07-28T09:03:21;100734.50;;;19.51;86.22
80186;BME280;69904;52.122;5.422;2023-07-28T09:05:48;100735.06;;;19.53;85.50
80186;BME280;69904;52.122;5.422;2023-07-28T09:08:15;100726.03;;;19.53;85.62
80186;BME280;69904;52.122;5.422;2023-07-28T09:10:47;100731.25;;;19.54;85.40
80186;BME280;69904;52.122;5.422;2023-07-28T09:13:18;100735.91;;;19.54;84.96
80186;BME280;69904;52.122;5.422;2023-07-28T09:15:45;100726.63;;;19.55;85.35
80186;BME280;69904;52.122;5.422;2023-07-28T09:18:13;100732.63;;;19.57;84.92
80186;BME280;69904;52.122;5.422;2023-07-28T09:20:41;100728.88;;;19.63;85.08
80186;BME280;69904;52.122;5.422;2023-07-28T09:23:09;100731.94;;;19.71;84.34
80186;BME280;69904;52.122;5.422;2023-07-28T09:25:37;100738.34;;;19.82;84.28
80186;BME280;69904;52.122;5.422;2023-07-28T09:28:04;100736.22;;;19.89;83.22
80186;BME280;69904;52.122;5.422;2023-07-28T09:30:52;100733.25;;;19.96;82.38
80186;BME280;69904;52.122;5.422;2023-07-28T09:33:34;100737.16;;;20.05;81.62
80186;BME280;69904;52.122;5.422;2023-07-28T09:38:37;100737.28;;;20.25;80.65
80186;BME280;69904;52.122;5.422;2023-07-28T09:41:04;100730.22;;;20.29;80.40
80186;BME280;69904;52.122;5.422;2023-07-28T09:43:39;100740.41;;;20.34;80.21
80186;BME280;69904;52.122;5.422;2023-07-28T09:46:08;100740.19;;;20.40;80.10
80186;BME280;69904;52.122;5.422;2023-07-28T09:48:38;100742.69;;;20.52;79.25
80186;BME280;69904;52.122;5.422;2023-07-28T09:51:20;100742.81;;;20.67;79.76
80186;BME280;69904;52.122;5.422;2023-07-28T09:53:56;100745.84;;;20.76;78.32
80186;BME280;69904;52.122;5.422;2023-07-28T09:56:28;100743.97;;;20.86;78.93
80186;BME280;69904;52.122;5.422;2023-07-28T09:58:56;100745.41;;;20.94;77.89
80186;BME280;69904;52.122;5.422;2023-07-28T10:01:24;100740.72;;;20.99;77.43
80186;BME280;69904;52.122;5.422;2023-07-28T10:03:51;100744.31;;;21.05;77.41
80186;BME280;69904;52.122;5.422;2023-07-28T10:06:19;100735.28;;;21.05;77.33
80186;BME280;69904;52.122;5.422;2023-07-28T10:08:47;100744.84;;;20.97;77.42
80186;BME280;69904;52.122;5.422;2023-07-28T10:11:13;100749.59;;;21.17;77.45
80186;BME280;69904;52.122;5.422;2023-07-28T10:13:41;100738.41;;;21.33;76.03
80186;BME280;69904;52.122;5.422;2023-07-28T10:16:12;100737.31;;;21.39;75.65
80186;BME280;69904;52.122;5.422;2023-07-28T10:18:41;100742.56;;;21.51;75.03
80186;BME280;69904;52.122;5.422;2023-07-28T10:21:10;100737.06;;;21.51;75.39
80186;BME280;69904;52.122;5.422;2023-07-28T10:23:41;100738.44;;;21.59;74.74
80186;BME280;69904;52.122;5.422;2023-07-28T10:26:08;100742.00;;;21.59;74.81
80186;BME280;69904;52.122;5.422;2023-07-28T10:28:37;100750.28;;;21.79;73.51
80186;BME280;69904;52.122;5.422;2023-07-28T10:31:10;100753.81;;;21.60;73.80
80186;BME280;69904;52.122;5.422;2023-07-28T10:33:44;100750.00;;;21.76;74.11
80186;BME280;69904;52.122;5.422;2023-07-28T10:36:13;100742.34;;;22.03;73.06
80186;BME280;69904;52.122;5.422;2023-07-28T10:38:41;100742.31;;;22.13;71.96
80186;BME280;69904;52.122;5.422;2023-07-28T10:41:15;100743.16;;;22.14;71.67
80186;BME280;69904;52.122;5.422;2023-07-28T10:43:43;100741.78;;;22.27;70.61
80186;BME280;69904;52.122;5.422;2023-07-28T10:46:14;100741.22;;;22.30;70.54
80186;BME280;69904;52.122;5.422;2023-07-28T10:48:42;100740.38;;;22.34;68.15
80186;BME280;69904;52.122;5.422;2023-07-28T10:51:11;100748.66;;;22.19;69.15
80186;BME280;69904;52.122;5.422;2023-07-28T10:53:38;100748.13;;;22.22;69.61
80186;BME280;69904;52.122;5.422;2023-07-28T10:56:05;100760.47;;;22.04;69.79
80186;BME280;69904;52.122;5.422;2023-07-28T10:58:34;100748.91;;;22.17;70.21
80186;BME280;69904;52.122;5.422;2023-07-28T11:01:04;100747.25;;;22.37;71.00
80186;BME280;69904;52.122;5.422;2023-07-28T11:03:30;100761.00;;;22.32;71.53
80186;BME280;69904;52.122;5.422;2023-07-28T11:05:57;100754.16;;;22.19;72.16
80186;BME280;69904;52.122;5.422;2023-07-28T11:08:23;100766.25;;;22.03;73.18
80186;BME280;69904;52.122;5.422;2023-07-28T11:10:50;100749.72;;;21.88;73.20
80186;BME280;69904;52.122;5.422;2023-07-28T11:13:17;100769.78;;;21.88;73.29
80186;BME280;69904;52.122;5.422;2023-07-28T11:16:03;100757.47;;;22.01;73.58
80186;BME280;69904;52.122;5.422;2023-07-28T11:18:31;100769.81;;;22.08;73.52
80186;BME280;69904;52.122;5.422;2023-07-28T11:20:57;100776.97;;;22.09;73.34
80186;BME280;69904;52.122;5.422;2023-07-28T11:23:24;100777.22;;;21.93;74.30
80186;BME280;69904;52.122;5.422;2023-07-28T11:25:50;100767.88;;;21.94;74.57
80186;BME280;69904;52.122;5.422;2023-07-28T11:28:19;100770.88;;;21.92;74.63
80186;BME280;69904;52.122;5.422;2023-07-28T11:30:46;100771.72;;;21.88;73.92
80186;BME280;69904;52.122;5.422;2023-07-28T11:33:14;100773.13;;;22.00;72.81
80186;BME280;69904;52.122;5.422;2023-07-28T11:35:44;100779.16;;;21.97;73.26
80186;BME280;69904;52.122;5.422;2023-07-28T11:38:11;100780.22;;;21.81;73.36
80186;BME280;69904;52.122;5.422;2023-07-28T11:40:37;100773.88;;;21.65;74.17
80186;BME280;69904;52.122;5.422;2023-07-28T11:43:04;100783.78;;;21.71;74.41
80186;BME280;69904;52.122;5.422;2023-07-28T11:45:31;100778.88;;;21.89;74.95
80186;BME280;69904;52.122;5.422;2023-07-28T11:48:05;100775.88;;;22.10;73.26
80186;BME280;69904;52.122;5.422;2023-07-28T11:50:39;100771.75;;;22.08;73.73
80186;BME280;69904;52.122;5.422;2023-07-28T11:53:07;100773.41;;;22.14;73.35
80186;BME280;69904;52.122;5.422;2023-07-28T11:55:38;100773.13;;;22.05;72.96
80186;BME280;69904;52.122;5.422;2023-07-28T11:58:05;100775.88;;;22.15;72.79
80186;BME280;69904;52.122;5.422;2023-07-28T12:00:34;100770.09;;;22.32;72.04
80186;BME280;69904;52.122;5.422;2023-07-28T12:03:11;100774.75;;;22.42;72.49
80186;BME280;69904;52.122;5.422;2023-07-28T12:05:40;100762.88;;;22.56;71.07
80186;BME280;69904;52.122;5.422;2023-07-28T12:08:10;100774.47;;;22.48;71.48
80186;BME280;69904;52.122;5.422;2023-07-28T12:10:37;100776.13;;;22.39;70.32
80186;BME280;69904;52.122;5.422;2023-07-28T12:13:50;100770.88;;;22.58;70.82
80186;BME280;69904;52.122;5.422;2023-07-28T12:16:40;100781.84;;;22.73;70.87
80186;BME280;69904;52.122;5.422;2023-07-28T12:19:13;100775.75;;;22.81;69.82
80186;BME280;69904;52.122;5.422;2023-07-28T12:21:40;100776.63;;;22.72;69.54
80186;BME280;69904;52.122;5.422;2023-07-28T12:24:07;100770.59;;;22.64;69.84
80186;BME280;69904;52.122;5.422;2023-07-28T12:26:34;100778.56;;;22.56;70.09
80186;BME280;69904;52.122;5.422;2023-07-28T12:29:05;100785.44;;;22.58;68.97
80186;BME280;69904;52.122;5.422;2023-07-28T12:31:34;100771.41;;;22.50;67.67
80186;BME280;69904;52.122;5.422;2023-07-28T12:34:11;100781.03;;;22.57;66.99
80186;BME280;69904;52.122;5.422;2023-07-28T12:36:50;100782.41;;;22.80;66.44
80186;BME280;69904;52.122;5.422;2023-07-28T12:39:19;100779.59;;;22.95;65.10
80186;BME280;69904;52.122;5.422;2023-07-28T12:41:49;100785.19;;;23.29;64.75
80186;BME280;69904;52.122;5.422;2023-07-28T12:44:36;100778.13;;;23.18;64.67
80186;BME280;69904;52.122;5.422;2023-07-28T12:47:06;100776.69;;;23.26;64.67
80186;BME280;69904;52.122;5.422;2023-07-28T12:49:33;100775.53;;;23.37;65.28
80186;BME280;69904;52.122;5.422;2023-07-28T12:52:03;100775.50;;;23.47;65.58
80186;BME280;69904;52.122;5.422;2023-07-28T12:54:31;100781.94;;;23.76;65.07
80186;BME280;69904;52.122;5.422;2023-07-28T12:57:10;100785.13;;;23.88;64.68